Terminal Aerodrome Forecast
Issued by NWS

Home | Current Version | Previous Version | Text Only | Print | Product List | Glossary Off
Versions: 1 2 3 4 5 6 7 8 9 10 11 12 13 14 15 16 17 18 19 20 21 22 23 24 25 26 27 28 29 30 31 32

000
FTUS43 KLOT 220724 AAA
TAFORD
TAF AMD
KORD 220724Z 2207/2312 21004KT 4SM BR SCT025
      TEMPO 2207/2210 BKN025
     FM221000 21004KT 2SM BR SCT003 BKN025
     FM221430 21010KT P6SM SCT030
     FM221800 20015G25KT P6SM SKC
     FM222300 24010KT P6SM SKC
     FM230700 29008KT P6SM SCT250=

USA.gov is the U.S. government's official web portal to all federal, state and local government web resources and services.